Time;durP1;ratioP1;P1;durP2;ratioP2;P2;SDS_P1;SDS_P2;PMS_P1;PMS_P2;Temp;Humidity;BMP_temperature;BMP_pressure;BME280_temperature;BME280_humidity;BME280_pressure;Samples;Min_cycle;Max_cycle;Signal;HPM_P1;HPM_P2
2024/01/31 00:00:26;;;;;;;6.38;2.85;;;;;;;;;;5089243;28;20021;-81
2024/01/31 00:02:52;;;;;;;6.03;2.97;;;;;;;;;;5089033;28;20024;-81
2024/01/31 00:05:18;;;;;;;7.28;2.80;;;;;;;;;;5069395;28;20021;-80
2024/01/31 00:07:44;;;;;;;6.95;2.92;;;;;;;;;;5068786;28;20058;-80
2024/01/31 00:10:11;;;;;;;5.75;2.60;;;;;;;;;;5067659;28;20017;-80
2024/01/31 00:12:37;;;;;;;4.50;2.58;;;;;;;;;;5067965;28;20028;-80
2024/01/31 00:15:03;;;;;;;4.57;2.80;;;;;;;;;;5067513;28;20078;-80
2024/01/31 00:17:29;;;;;;;8.85;2.85;;;;;;;;;;5068616;28;20021;-82
2024/01/31 00:19:55;;;;;;;5.30;2.80;;;;;;;;;;5068631;28;20016;-82
2024/01/31 00:22:21;;;;;;;9.13;3.47;;;;;;;;;;5068612;28;20094;-82
2024/01/31 00:24:47;;;;;;;8.70;2.92;;;;;;;;;;5068534;28;20388;-81
2024/01/31 00:27:13;;;;;;;4.93;3.00;;;;;;;;;;5068413;28;20107;-81
2024/01/31 00:29:39;;;;;;;8.65;3.25;;;;;;;;;;5069170;28;20029;-81
2024/01/31 00:32:05;;;;;;;5.95;2.85;;;;;;;;;;5067275;28;20068;-81
2024/01/31 00:34:32;;;;;;;4.75;2.78;;;;;;;;;;5068529;28;20355;-82
2024/01/31 00:36:58;;;;;;;11.88;3.67;;;;;;;;;;5068335;28;20440;-82
2024/01/31 00:39:31;;;;;;;8.45;2.75;;;;;;;;;;5070345;28;20029;-82
2024/01/31 00:41:58;;;;;;;7.40;2.88;;;;;;;;;;5072268;28;20028;-82
2024/01/31 00:44:24;;;;;;;7.32;3.10;;;;;;;;;;5072244;28;20021;-81
2024/01/31 00:46:50;;;;;;;4.55;2.58;;;;;;;;;;5071952;28;20036;-82
2024/01/31 00:49:16;;;;;;;7.07;2.80;;;;;;;;;;5072002;28;20070;-81
2024/01/31 00:51:45;;;;;;;5.20;3.10;;;;;;;;;;5072887;28;20032;-81
2024/01/31 00:54:12;;;;;;;9.80;3.10;;;;;;;;;;5072554;28;20024;-81
2024/01/31 00:56:38;;;;;;;10.85;3.08;;;;;;;;;;5072708;28;20032;-81
2024/01/31 00:59:04;;;;;;;7.82;3.15;;;;;;;;;;5071765;28;20016;-81
2024/01/31 01:01:30;;;;;;;8.20;2.90;;;;;;;;;;5070585;28;20033;-81
2024/01/31 01:03:56;;;;;;;8.88;3.20;;;;;;;;;;5071850;28;20021;-81
2024/01/31 01:06:22;;;;;;;6.75;3.25;;;;;;;;;;5088169;28;20094;-81
2024/01/31 01:08:48;;;;;;;10.63;3.35;;;;;;;;;;5071802;28;20040;-81
2024/01/31 01:11:14;;;;;;;6.68;2.95;;;;;;;;;;5071636;28;20029;-81
2024/01/31 01:13:40;;;;;;;7.90;3.47;;;;;;;;;;5071100;28;20464;-81
2024/01/31 01:16:06;;;;;;;7.03;3.03;;;;;;;;;;5071640;28;20078;-81
2024/01/31 01:18:32;;;;;;;12.65;3.00;;;;;;;;;;5071651;28;20380;-81
2024/01/31 01:20:58;;;;;;;9.32;3.00;;;;;;;;;;5071009;28;20032;-81
2024/01/31 01:23:24;;;;;;;10.90;3.22;;;;;;;;;;5071490;28;20024;-81
2024/01/31 01:25:50;;;;;;;4.15;2.80;;;;;;;;;;5071515;28;20101;-81
2024/01/31 01:28:16;;;;;;;8.75;3.03;;;;;;;;;;5071768;28;20033;-81
2024/01/31 01:30:42;;;;;;;6.68;2.97;;;;;;;;;;5072351;28;20039;-81
2024/01/31 01:33:08;;;;;;;8.82;3.10;;;;;;;;;;5071836;28;20115;-81
2024/01/31 01:35:34;;;;;;;6.43;3.13;;;;;;;;;;5072176;28;20020;-81
2024/01/31 01:38:00;;;;;;;10.77;3.30;;;;;;;;;;5071296;28;20021;-81
2024/01/31 01:40:26;;;;;;;6.90;3.03;;;;;;;;;;5071139;28;20490;-81
2024/01/31 01:42:52;;;;;;;10.80;3.55;;;;;;;;;;5071241;28;20032;-81
2024/01/31 01:45:18;;;;;;;8.00;3.30;;;;;;;;;;5071047;28;20535;-81
2024/01/31 01:47:50;;;;;;;6.60;2.88;;;;;;;;;;5086240;28;20036;-81
2024/01/31 01:50:17;;;;;;;4.47;2.85;;;;;;;;;;5090403;28;20549;-81
2024/01/31 01:52:43;;;;;;;9.60;3.38;;;;;;;;;;5092081;28;20414;-81
2024/01/31 01:55:10;;;;;;;13.25;3.17;;;;;;;;;;5076861;28;20477;-81
2024/01/31 01:57:38;;;;;;;7.50;2.88;;;;;;;;;;5070951;28;20243;-81
2024/01/31 02:00:04;;;;;;;9.02;3.03;;;;;;;;;;5070784;28;20012;-81
2024/01/31 02:02:31;;;;;;;6.05;3.13;;;;;;;;;;5070779;28;20111;-81
2024/01/31 02:04:57;;;;;;;12.45;3.38;;;;;;;;;;5070661;28;20066;-81
2024/01/31 02:07:27;;;;;;;7.13;3.25;;;;;;;;;;5071690;28;20060;-80
2024/01/31 02:09:53;;;;;;;11.35;3.25;;;;;;;;;;5070562;28;20476;-81
2024/01/31 02:12:19;;;;;;;10.55;3.65;;;;;;;;;;5070572;28;20024;-80
2024/01/31 02:14:47;;;;;;;10.32;3.28;;;;;;;;;;5071391;28;20461;-81
2024/01/31 02:17:13;;;;;;;10.32;3.40;;;;;;;;;;5071195;28;20021;-81
2024/01/31 02:19:39;;;;;;;8.57;3.20;;;;;;;;;;5070407;28;20108;-81
2024/01/31 02:22:09;;;;;;;9.73;3.55;;;;;;;;;;5075681;28;20115;-81
2024/01/31 02:24:35;;;;;;;6.68;2.92;;;;;;;;;;5090568;28;20024;-81
2024/01/31 02:27:01;;;;;;;8.70;3.53;;;;;;;;;;5090442;28;20042;-81
2024/01/31 02:29:26;;;;;;;9.10;3.20;;;;;;;;;;5090304;28;20032;-80
2024/01/31 02:31:52;;;;;;;7.38;2.97;;;;;;;;;;5090261;28;20471;-80
2024/01/31 02:34:18;;;;;;;9.27;3.13;;;;;;;;;;5090459;28;20020;-80
2024/01/31 02:36:44;;;;;;;8.05;3.20;;;;;;;;;;5084220;28;20115;-80
2024/01/31 02:39:10;;;;;;;4.63;3.10;;;;;;;;;;5069255;28;20024;-80
2024/01/31 02:41:36;;;;;;;7.07;2.92;;;;;;;;;;5069938;28;20060;-80
2024/01/31 02:44:02;;;;;;;6.25;2.80;;;;;;;;;;5069835;28;20029;-81
2024/01/31 02:46:28;;;;;;;12.40;3.90;;;;;;;;;;5069628;28;20108;-81
2024/01/31 02:48:54;;;;;;;11.00;3.60;;;;;;;;;;5069840;28;20032;-80
2024/01/31 02:51:20;;;;;;;6.50;3.25;;;;;;;;;;5068564;28;20024;-81
2024/01/31 02:53:46;;;;;;;9.07;3.90;;;;;;;;;;5067655;28;20033;-81
2024/01/31 02:56:12;;;;;;;10.68;3.92;;;;;;;;;;5066353;28;20024;-83
2024/01/31 02:58:38;;;;;;;11.20;3.65;;;;;;;;;;5069278;28;20111;-82
2024/01/31 03:01:07;;;;;;;8.68;3.88;;;;;;;;;;5068068;28;20169;-83
2024/01/31 03:03:33;;;;;;;7.95;3.65;;;;;;;;;;5064901;28;20028;-82
2024/01/31 03:05:59;;;;;;;10.95;3.75;;;;;;;;;;5068834;28;20103;-83
2024/01/31 03:08:25;;;;;;;12.77;3.65;;;;;;;;;;5067565;28;20481;-84
2024/01/31 03:10:51;;;;;;;9.05;3.90;;;;;;;;;;5068593;28;20024;-83
2024/01/31 03:13:17;;;;;;;10.75;4.03;;;;;;;;;;5070072;28;20052;-83
2024/01/31 03:15:43;;;;;;;9.73;4.10;;;;;;;;;;5078454;28;20103;-82
2024/01/31 03:18:09;;;;;;;8.02;3.53;;;;;;;;;;5074940;28;20397;-84
2024/01/31 03:20:35;;;;;;;9.45;3.60;;;;;;;;;;5065902;28;20097;-83
2024/01/31 03:23:02;;;;;;;9.80;4.20;;;;;;;;;;5066156;28;20013;-84
2024/01/31 03:25:28;;;;;;;10.73;3.70;;;;;;;;;;5067427;28;20586;-83
2024/01/31 03:27:54;;;;;;;11.00;3.80;;;;;;;;;;5068046;28;20492;-83
2024/01/31 03:30:20;;;;;;;9.05;4.07;;;;;;;;;;5068937;28;20025;-83
2024/01/31 03:32:46;;;;;;;11.65;4.05;;;;;;;;;;5066619;28;20459;-82
2024/01/31 03:35:12;;;;;;;6.82;3.45;;;;;;;;;;5067222;28;20059;-83
2024/01/31 03:37:38;;;;;;;9.68;4.07;;;;;;;;;;5067927;28;20060;-83
2024/01/31 03:40:06;;;;;;;9.35;3.90;;;;;;;;;;5066049;28;20078;-82
2024/01/31 03:42:31;;;;;;;8.25;4.10;;;;;;;;;;5066253;28;20036;-82
2024/01/31 03:44:57;;;;;;;7.35;4.28;;;;;;;;;;5068235;28;20844;-81
2024/01/31 03:47:24;;;;;;;5.75;3.92;;;;;;;;;;5068868;28;20071;-81
2024/01/31 03:49:52;;;;;;;7.97;4.20;;;;;;;;;;5067632;28;20020;-82
2024/01/31 03:52:18;;;;;;;6.10;3.67;;;;;;;;;;5067553;28;20028;-81
2024/01/31 03:54:44;;;;;;;12.30;4.43;;;;;;;;;;5066301;28;20017;-81
2024/01/31 03:57:10;;;;;;;5.70;3.58;;;;;;;;;;5067825;28;20021;-82
2024/01/31 03:59:37;;;;;;;7.10;3.80;;;;;;;;;;5068998;28;20365;-82
2024/01/31 04:02:03;;;;;;;7.95;4.10;;;;;;;;;;5067893;28;20025;-81
2024/01/31 04:04:29;;;;;;;6.85;4.18;;;;;;;;;;5066731;28;20037;-81
2024/01/31 04:06:55;;;;;;;8.32;3.80;;;;;;;;;;5063363;28;20044;-83
2024/01/31 04:09:21;;;;;;;7.38;3.65;;;;;;;;;;5068609;28;20206;-84
2024/01/31 04:11:47;;;;;;;7.18;4.03;;;;;;;;;;5067758;28;20119;-84
2024/01/31 04:14:13;;;;;;;7.10;3.72;;;;;;;;;;5068816;28;20020;-83
2024/01/31 04:16:39;;;;;;;5.03;3.65;;;;;;;;;;5071737;28;20040;-82
2024/01/31 04:19:07;;;;;;;7.03;3.72;;;;;;;;;;5071113;28;20020;-83
2024/01/31 04:21:33;;;;;;;8.63;3.95;;;;;;;;;;5072698;28;20032;-84
2024/01/31 04:23:59;;;;;;;7.68;4.07;;;;;;;;;;5070313;28;20078;-83
2024/01/31 04:26:25;;;;;;;6.78;4.40;;;;;;;;;;5069901;28;20029;-82
2024/01/31 04:28:51;;;;;;;9.25;4.97;;;;;;;;;;5072827;28;20045;-83
2024/01/31 04:31:18;;;;;;;6.63;4.10;;;;;;;;;;5074864;28;20025;-83
2024/01/31 04:33:44;;;;;;;13.85;4.07;;;;;;;;;;5074098;28;20032;-83
2024/01/31 04:36:11;;;;;;;8.13;4.53;;;;;;;;;;5077536;28;20049;-84
2024/01/31 04:38:37;;;;;;;7.40;3.80;;;;;;;;;;5073367;28;20021;-83
2024/01/31 04:41:03;;;;;;;6.25;3.70;;;;;;;;;;5072379;28;20020;-82
2024/01/31 04:43:29;;;;;;;7.43;3.80;;;;;;;;;;5070983;28;20157;-84
2024/01/31 04:45:55;;;;;;;10.00;3.83;;;;;;;;;;5070825;28;20024;-83
2024/01/31 04:48:21;;;;;;;8.73;4.45;;;;;;;;;;5072496;28;20035;-83
2024/01/31 04:50:47;;;;;;;5.78;3.45;;;;;;;;;;5072124;28;20031;-85
2024/01/31 04:53:13;;;;;;;9.32;4.22;;;;;;;;;;5071716;28;20020;-82
2024/01/31 04:55:39;;;;;;;8.60;4.35;;;;;;;;;;5070659;28;20016;-84
2024/01/31 04:58:05;;;;;;;8.38;4.07;;;;;;;;;;5070663;28;20013;-79
2024/01/31 05:00:31;;;;;;;7.55;4.20;;;;;;;;;;5071711;28;20033;-79
2024/01/31 05:02:57;;;;;;;6.07;3.92;;;;;;;;;;5057350;28;20021;-80
2024/01/31 05:05:23;;;;;;;9.52;4.47;;;;;;;;;;5064665;28;20029;-79
2024/01/31 05:07:49;;;;;;;11.07;4.18;;;;;;;;;;5071437;28;20094;-80
2024/01/31 05:10:15;;;;;;;7.65;3.97;;;;;;;;;;5071375;28;20035;-80
2024/01/31 05:12:42;;;;;;;8.20;4.10;;;;;;;;;;5071608;28;20021;-81
2024/01/31 05:15:09;;;;;;;7.95;4.07;;;;;;;;;;5070278;28;20025;-80
2024/01/31 05:17:35;;;;;;;7.70;4.30;;;;;;;;;;5071217;28;20028;-79
2024/01/31 05:20:01;;;;;;;7.63;4.13;;;;;;;;;;5068840;28;20385;-79
2024/01/31 05:22:27;;;;;;;8.77;4.40;;;;;;;;;;5071719;28;20066;-79
2024/01/31 05:24:53;;;;;;;14.43;4.57;;;;;;;;;;5071425;28;20035;-79
2024/01/31 05:27:19;;;;;;;8.05;4.45;;;;;;;;;;5070957;28;20029;-79
2024/01/31 05:29:45;;;;;;;12.57;4.20;;;;;;;;;;5070720;28;20032;-80
2024/01/31 05:32:11;;;;;;;8.63;4.60;;;;;;;;;;5071406;28;20025;-79
2024/01/31 05:34:40;;;;;;;10.25;4.43;;;;;;;;;;5069070;28;20021;-80
2024/01/31 05:37:06;;;;;;;11.18;4.65;;;;;;;;;;5060656;28;20023;-80
2024/01/31 05:39:32;;;;;;;11.05;4.25;;;;;;;;;;5071079;28;20111;-80
2024/01/31 05:41:58;;;;;;;9.10;4.45;;;;;;;;;;5071317;28;20023;-80
2024/01/31 05:44:24;;;;;;;10.43;4.70;;;;;;;;;;5071754;28;20089;-80
2024/01/31 05:46:50;;;;;;;7.80;4.60;;;;;;;;;;5070977;28;20032;-80
2024/01/31 05:49:16;;;;;;;7.53;3.67;;;;;;;;;;5074341;28;20400;-80
2024/01/31 05:51:42;;;;;;;8.07;4.50;;;;;;;;;;5075251;28;20031;-80
2024/01/31 05:54:08;;;;;;;9.77;4.32;;;;;;;;;;5070853;28;20040;-80
2024/01/31 05:56:37;;;;;;;12.20;4.20;;;;;;;;;;5070921;28;20400;-80
2024/01/31 05:59:02;;;;;;;6.50;3.70;;;;;;;;;;5070755;28;20028;-80
2024/01/31 06:01:28;;;;;;;8.73;4.47;;;;;;;;;;5069625;28;20032;-81
2024/01/31 06:03:54;;;;;;;6.95;3.72;;;;;;;;;;5070686;28;20086;-81
2024/01/31 06:06:21;;;;;;;8.57;4.43;;;;;;;;;;5070412;28;20048;-80
2024/01/31 06:08:47;;;;;;;6.35;3.78;;;;;;;;;;5070061;28;20489;-80
2024/01/31 06:11:13;;;;;;;6.38;4.07;;;;;;;;;;5056171;28;20016;-80
2024/01/31 06:13:39;;;;;;;10.68;4.50;;;;;;;;;;5057583;28;20055;-80
2024/01/31 06:16:06;;;;;;;5.55;4.20;;;;;;;;;;5064736;28;20388;-81
2024/01/31 06:18:34;;;;;;;8.40;5.50;;;;;;;;;;5067663;28;20089;-82
2024/01/31 06:21:00;;;;;;;9.73;6.25;;;;;;;;;;5070154;28;20024;-83
2024/01/31 06:23:26;;;;;;;9.50;6.53;;;;;;;;;;5071117;28;20025;-84
2024/01/31 06:25:52;;;;;;;11.93;6.95;;;;;;;;;;5070251;28;20106;-83
2024/01/31 06:28:18;;;;;;;11.73;6.13;;;;;;;;;;5070125;28;20032;-83
2024/01/31 06:30:45;;;;;;;13.70;5.80;;;;;;;;;;5069728;28;20036;-84
2024/01/31 06:33:14;;;;;;;14.20;5.35;;;;;;;;;;5070268;28;20038;-86
2024/01/31 06:35:47;;;;;;;9.50;4.90;;;;;;;;;;5068704;28;20028;-83
2024/01/31 06:38:13;;;;;;;7.43;4.60;;;;;;;;;;5069836;28;20017;-83
2024/01/31 06:40:39;;;;;;;9.45;4.45;;;;;;;;;;5070136;28;20029;-86
2024/01/31 06:43:06;;;;;;;9.57;4.47;;;;;;;;;;5070161;28;20104;-84
2024/01/31 06:45:32;;;;;;;9.05;4.88;;;;;;;;;;5068257;28;20021;-83
2024/01/31 06:47:58;;;;;;;8.75;4.35;;;;;;;;;;5070628;28;20029;-83
2024/01/31 06:50:24;;;;;;;10.80;4.63;;;;;;;;;;5069979;28;20040;-83
2024/01/31 06:52:50;;;;;;;11.35;4.93;;;;;;;;;;5069167;28;20028;-85
2024/01/31 06:55:16;;;;;;;7.70;5.22;;;;;;;;;;5068502;28;20021;-87
2024/01/31 06:57:42;;;;;;;6.72;4.32;;;;;;;;;;5069526;28;20021;-83
2024/01/31 07:00:12;;;;;;;9.30;4.65;;;;;;;;;;5068244;28;20039;-88
2024/01/31 07:02:39;;;;;;;7.35;4.38;;;;;;;;;;5069020;28;20028;-87
2024/01/31 07:05:05;;;;;;;10.10;4.40;;;;;;;;;;5069123;28;20025;-83
2024/01/31 07:07:33;;;;;;;8.52;4.80;;;;;;;;;;5070052;28;20412;-83
2024/01/31 07:09:59;;;;;;;9.48;4.70;;;;;;;;;;5069004;28;20038;-84
2024/01/31 07:12:25;;;;;;;10.75;5.38;;;;;;;;;;5069524;28;20020;-83
2024/01/31 07:14:51;;;;;;;7.88;5.18;;;;;;;;;;5069528;28;20047;-88
2024/01/31 07:17:17;;;;;;;9.15;4.88;;;;;;;;;;5068855;28;20397;-84
2024/01/31 07:19:43;;;;;;;9.82;5.13;;;;;;;;;;5069569;28;20491;-83
2024/01/31 07:22:09;;;;;;;6.38;4.70;;;;;;;;;;5068976;28;20077;-83
2024/01/31 07:24:35;;;;;;;10.82;5.03;;;;;;;;;;5069400;28;20025;-83
2024/01/31 07:27:02;;;;;;;12.10;5.30;;;;;;;;;;5070249;28;20036;-88
2024/01/31 07:29:28;;;;;;;9.18;5.22;;;;;;;;;;5069499;28;20515;-83
2024/01/31 07:31:54;;;;;;;9.23;5.72;;;;;;;;;;5071907;28;20090;-83
2024/01/31 07:34:20;;;;;;;10.68;5.25;;;;;;;;;;5072765;28;20461;-83
2024/01/31 07:36:46;;;;;;;8.88;5.10;;;;;;;;;;5071362;28;20111;-85
2024/01/31 07:39:14;;;;;;;7.28;4.90;;;;;;;;;;5072637;28;20032;-86
2024/01/31 07:41:40;;;;;;;6.93;4.73;;;;;;;;;;5069082;28;20024;-83
2024/01/31 07:44:06;;;;;;;7.53;4.78;;;;;;;;;;5069201;28;20020;-83
2024/01/31 07:46:32;;;;;;;10.18;4.57;;;;;;;;;;5069704;28;20530;-83
2024/01/31 07:48:58;;;;;;;9.38;4.72;;;;;;;;;;5068449;28;20021;-83
2024/01/31 07:51:24;;;;;;;7.88;4.80;;;;;;;;;;5068753;28;20375;-83
2024/01/31 07:53:50;;;;;;;10.30;5.30;;;;;;;;;;5069043;28;20389;-87
2024/01/31 07:56:16;;;;;;;10.38;5.00;;;;;;;;;;5068967;28;20028;-83
2024/01/31 07:58:42;;;;;;;9.38;5.53;;;;;;;;;;5069020;28;20021;-88
2024/01/31 08:01:08;;;;;;;8.85;4.70;;;;;;;;;;5068834;28;20024;-83
2024/01/31 08:03:41;;;;;;;8.07;4.57;;;;;;;;;;5069763;28;20028;-83
2024/01/31 08:06:07;;;;;;;7.22;4.63;;;;;;;;;;5068451;28;20471;-86
2024/01/31 08:08:33;;;;;;;8.43;4.40;;;;;;;;;;5069304;28;20044;-83
2024/01/31 08:11:02;;;;;;;8.90;4.70;;;;;;;;;;5067519;28;20078;-83
2024/01/31 08:13:28;;;;;;;8.00;4.80;;;;;;;;;;5068784;28;20040;-83
2024/01/31 08:15:54;;;;;;;8.45;5.10;;;;;;;;;;5068792;28;20025;-83
2024/01/31 08:18:20;;;;;;;8.88;5.25;;;;;;;;;;5067391;28;20031;-84
2024/01/31 08:20:46;;;;;;;8.35;4.75;;;;;;;;;;5068497;28;20021;-86
2024/01/31 08:23:12;;;;;;;5.38;4.50;;;;;;;;;;5067055;28;20107;-87
2024/01/31 08:25:38;;;;;;;9.85;5.20;;;;;;;;;;5067417;28;20035;-87
2024/01/31 08:28:04;;;;;;;9.20;5.10;;;;;;;;;;5069302;28;20048;-87
2024/01/31 08:30:30;;;;;;;8.05;4.85;;;;;;;;;;5068413;28;20056;-83
2024/01/31 08:32:56;;;;;;;8.40;5.00;;;;;;;;;;5066891;28;20350;-87
2024/01/31 08:35:22;;;;;;;7.35;4.75;;;;;;;;;;5068657;28;20027;-86
2024/01/31 08:37:49;;;;;;;9.35;5.00;;;;;;;;;;5068570;28;20031;-84
2024/01/31 08:40:15;;;;;;;13.23;4.82;;;;;;;;;;5068645;28;20021;-86
2024/01/31 08:42:41;;;;;;;6.88;4.38;;;;;;;;;;5068438;28;20438;-84
2024/01/31 08:45:08;;;;;;;9.55;4.95;;;;;;;;;;5069360;28;20017;-88
2024/01/31 08:47:34;;;;;;;7.93;4.65;;;;;;;;;;5067786;28;20424;-86
2024/01/31 08:50:00;;;;;;;8.82;5.22;;;;;;;;;;5068168;28;20024;-85
2024/01/31 08:52:26;;;;;;;9.35;5.30;;;;;;;;;;5068424;28;20129;-84
2024/01/31 08:54:52;;;;;;;9.35;5.15;;;;;;;;;;5068227;28;20124;-87
2024/01/31 08:57:18;;;;;;;8.65;5.68;;;;;;;;;;5068034;28;20040;-89
2024/01/31 08:59:44;;;;;;;8.00;5.65;;;;;;;;;;5068657;28;20059;-84
2024/01/31 09:02:10;;;;;;;10.98;5.78;;;;;;;;;;5071854;28;20447;-83
2024/01/31 09:04:36;;;;;;;8.23;6.10;;;;;;;;;;5072816;28;20025;-88
2024/01/31 09:07:02;;;;;;;8.82;6.13;;;;;;;;;;5071681;28;20032;-84
2024/01/31 09:09:30;;;;;;;8.68;6.15;;;;;;;;;;5071797;28;20028;-86
2024/01/31 09:11:56;;;;;;;9.18;6.65;;;;;;;;;;5071595;28;20017;-83
2024/01/31 09:14:22;;;;;;;10.95;6.80;;;;;;;;;;5088676;28;20035;-84
2024/01/31 09:16:48;;;;;;;13.13;6.22;;;;;;;;;;5084507;28;20392;-83
2024/01/31 09:19:14;;;;;;;10.85;6.20;;;;;;;;;;5071661;28;20028;-83
2024/01/31 09:21:40;;;;;;;10.65;6.20;;;;;;;;;;5070743;28;20031;-83
2024/01/31 09:24:06;;;;;;;8.55;5.75;;;;;;;;;;5072433;28;20032;-87
2024/01/31 09:26:32;;;;;;;10.32;6.07;;;;;;;;;;5071397;28;20021;-87
2024/01/31 09:28:58;;;;;;;8.25;5.93;;;;;;;;;;5070873;28;20542;-87
2024/01/31 09:31:25;;;;;;;9.25;5.90;;;;;;;;;;5071393;28;20024;-84
2024/01/31 09:33:51;;;;;;;8.35;6.13;;;;;;;;;;5071401;28;20024;-84
2024/01/31 09:36:17;;;;;;;8.95;5.15;;;;;;;;;;5071347;28;20031;-83
2024/01/31 09:38:44;;;;;;;7.22;4.90;;;;;;;;;;5071313;28;20035;-85
2024/01/31 09:41:11;;;;;;;6.60;4.60;;;;;;;;;;5071839;28;20020;-84
2024/01/31 09:43:37;;;;;;;6.28;4.65;;;;;;;;;;5070539;28;20381;-88
2024/01/31 09:46:04;;;;;;;7.80;4.75;;;;;;;;;;5070993;28;20488;-88
2024/01/31 09:48:30;;;;;;;6.18;4.80;;;;;;;;;;5071111;28;20043;-87
2024/01/31 09:50:56;;;;;;;8.00;4.55;;;;;;;;;;5071082;28;20025;-84
2024/01/31 09:53:23;;;;;;;6.03;4.50;;;;;;;;;;5071091;28;20531;-88
2024/01/31 09:55:51;;;;;;;7.15;4.35;;;;;;;;;;5070993;28;20081;-88
2024/01/31 09:58:18;;;;;;;4.97;4.03;;;;;;;;;;5070582;28;20024;-84
2024/01/31 10:00:44;;;;;;;4.40;3.88;;;;;;;;;;5070728;28;20480;-83
2024/01/31 10:03:10;;;;;;;7.80;4.68;;;;;;;;;;5071755;28;20032;-84
2024/01/31 10:05:37;;;;;;;8.75;4.70;;;;;;;;;;5070901;28;20021;-85
2024/01/31 10:08:03;;;;;;;7.03;4.63;;;;;;;;;;5069302;28;20040;-85
2024/01/31 10:10:29;;;;;;;8.10;4.18;;;;;;;;;;5070686;28;20032;-86
2024/01/31 10:12:55;;;;;;;8.50;4.55;;;;;;;;;;5069744;28;20055;-88
2024/01/31 10:15:21;;;;;;;7.20;4.10;;;;;;;;;;5070664;28;20020;-89
2024/01/31 10:17:48;;;;;;;7.28;4.00;;;;;;;;;;5070586;28;20035;-86
2024/01/31 10:20:14;;;;;;;7.55;4.15;;;;;;;;;;5069309;28;20048;-86
2024/01/31 10:22:40;;;;;;;6.55;3.75;;;;;;;;;;5070929;28;20037;-84
2024/01/31 10:25:07;;;;;;;6.53;3.60;;;;;;;;;;5069083;28;20025;-86
2024/01/31 10:27:36;;;;;;;5.07;3.75;;;;;;;;;;5070371;28;20282;-87
2024/01/31 10:30:08;;;;;;;6.22;4.25;;;;;;;;;;5070223;28;20028;-84
2024/01/31 10:32:38;;;;;;;7.35;4.22;;;;;;;;;;5069974;28;20041;-84
2024/01/31 10:35:05;;;;;;;7.85;4.20;;;;;;;;;;5070120;28;20020;-84
2024/01/31 10:37:31;;;;;;;6.53;3.70;;;;;;;;;;5068658;28;20035;-87
2024/01/31 10:39:59;;;;;;;7.93;4.32;;;;;;;;;;5068921;28;20027;-84
2024/01/31 10:42:26;;;;;;;5.93;4.15;;;;;;;;;;5070061;28;20074;-87
2024/01/31 10:44:52;;;;;;;6.38;4.15;;;;;;;;;;5068676;28;20036;-84
2024/01/31 10:47:18;;;;;;;10.02;4.85;;;;;;;;;;5068553;28;20082;-83
2024/01/31 10:49:44;;;;;;;8.90;5.00;;;;;;;;;;5070383;28;20056;-84
2024/01/31 10:52:11;;;;;;;6.95;4.85;;;;;;;;;;5070733;28;20099;-84
2024/01/31 10:54:40;;;;;;;6.40;4.47;;;;;;;;;;5069816;28;20020;-83
2024/01/31 10:57:06;;;;;;;6.75;4.28;;;;;;;;;;5069761;28;20028;-83
2024/01/31 10:59:36;;;;;;;7.13;5.25;;;;;;;;;;5069740;28;20033;-87
2024/01/31 11:02:02;;;;;;;7.55;5.57;;;;;;;;;;5069655;28;20153;-84
2024/01/31 11:04:28;;;;;;;6.72;5.00;;;;;;;;;;5068318;28;20135;-84
2024/01/31 11:06:54;;;;;;;8.07;5.38;;;;;;;;;;5069443;28;20051;-88
2024/01/31 11:09:24;;;;;;;8.63;5.25;;;;;;;;;;5069318;28;20468;-85
2024/01/31 11:12:08;;;;;;;9.77;5.88;;;;;;;;;;5069546;28;20561;-87
2024/01/31 11:14:34;;;;;;;7.65;5.32;;;;;;;;;;5069474;28;20074;-85
2024/01/31 11:17:06;;;;;;;8.00;5.18;;;;;;;;;;5069341;28;20491;-87
2024/01/31 11:19:34;;;;;;;10.35;5.43;;;;;;;;;;5069075;28;20020;-85
2024/01/31 11:22:00;;;;;;;9.70;5.00;;;;;;;;;;5069214;28;20440;-85
2024/01/31 11:24:26;;;;;;;12.23;5.68;;;;;;;;;;5068516;28;20024;-87
2024/01/31 11:26:52;;;;;;;10.25;5.32;;;;;;;;;;5068765;28;20024;-85
2024/01/31 11:29:18;;;;;;;7.47;5.05;;;;;;;;;;5069076;28;20127;-87
2024/01/31 11:31:45;;;;;;;7.45;5.35;;;;;;;;;;5068709;28;20021;-87
2024/01/31 11:34:11;;;;;;;8.73;5.68;;;;;;;;;;5069465;28;20047;-84
2024/01/31 11:36:37;;;;;;;8.00;5.20;;;;;;;;;;5068024;28;20472;-87
2024/01/31 11:39:05;;;;;;;11.90;5.20;;;;;;;;;;5069125;28;20043;-87
2024/01/31 11:41:31;;;;;;;8.60;4.68;;;;;;;;;;5069124;28;20016;-85
2024/01/31 11:43:57;;;;;;;11.30;6.30;;;;;;;;;;5067104;28;20417;-87
2024/01/31 11:46:23;;;;;;;7.65;4.60;;;;;;;;;;5067655;28;20496;-87
2024/01/31 11:48:49;;;;;;;6.10;4.22;;;;;;;;;;5069056;28;20489;-85
2024/01/31 11:51:15;;;;;;;8.75;4.32;;;;;;;;;;5069837;28;20024;-85
2024/01/31 11:53:41;;;;;;;8.40;4.32;;;;;;;;;;5069000;28;20032;-88
2024/01/31 11:56:07;;;;;;;12.02;5.15;;;;;;;;;;5069022;28;20453;-87
2024/01/31 11:58:35;;;;;;;6.25;4.43;;;;;;;;;;5068536;28;20579;-87
2024/01/31 12:01:01;;;;;;;8.43;4.32;;;;;;;;;;5068989;28;20052;-85
2024/01/31 12:03:27;;;;;;;5.60;4.07;;;;;;;;;;5068846;28;20114;-85
2024/01/31 12:05:57;;;;;;;9.95;4.55;;;;;;;;;;5068885;28;20117;-86
2024/01/31 12:08:28;;;;;;;7.13;3.97;;;;;;;;;;5068236;28;20112;-87
2024/01/31 12:10:54;;;;;;;5.57;3.35;;;;;;;;;;5067229;28;20086;-86
2024/01/31 12:13:21;;;;;;;6.53;3.63;;;;;;;;;;5068925;28;20107;-88
2024/01/31 12:15:48;;;;;;;4.85;3.47;;;;;;;;;;5069580;28;20044;-84
2024/01/31 12:18:15;;;;;;;4.80;3.38;;;;;;;;;;5076827;28;20024;-84
2024/01/31 12:20:41;;;;;;;6.65;3.13;;;;;;;;;;5087681;28;20450;-86
2024/01/31 12:23:08;;;;;;;9.70;3.45;;;;;;;;;;5089102;28;20376;-88
2024/01/31 12:25:34;;;;;;;6.30;3.45;;;;;;;;;;5088823;28;20384;-85
2024/01/31 12:28:00;;;;;;;3.38;3.08;;;;;;;;;;5088819;28;20036;-87
2024/01/31 12:30:26;;;;;;;4.35;3.05;;;;;;;;;;5088576;28;20040;-83
2024/01/31 12:32:52;;;;;;;8.85;4.70;;;;;;;;;;5082844;28;20052;-84
2024/01/31 12:35:19;;;;;;;7.35;3.97;;;;;;;;;;5071212;28;20100;-84
2024/01/31 12:37:45;;;;;;;8.88;4.22;;;;;;;;;;5071734;28;20035;-88
2024/01/31 12:40:12;;;;;;;6.93;3.20;;;;;;;;;;5071003;28;20104;-85
2024/01/31 12:42:38;;;;;;;7.15;3.90;;;;;;;;;;5072455;28;20035;-86
2024/01/31 12:45:04;;;;;;;9.35;3.83;;;;;;;;;;5072275;28;20107;-84
2024/01/31 12:47:30;;;;;;;6.47;4.30;;;;;;;;;;5071963;28;20547;-84
2024/01/31 12:49:56;;;;;;;5.90;4.57;;;;;;;;;;5072161;28;20059;-84
2024/01/31 12:52:24;;;;;;;7.55;5.00;;;;;;;;;;5072204;28;20080;-85
2024/01/31 12:54:50;;;;;;;6.60;4.67;;;;;;;;;;5072967;28;20023;-86
2024/01/31 12:57:17;;;;;;;6.75;4.97;;;;;;;;;;5073027;28;20354;-84
2024/01/31 12:59:43;;;;;;;8.57;5.55;;;;;;;;;;5072084;28;20040;-86
2024/01/31 13:02:09;;;;;;;9.98;6.82;;;;;;;;;;5072066;28;20039;-85
2024/01/31 13:04:35;;;;;;;9.45;5.80;;;;;;;;;;5071990;28;20024;-85
2024/01/31 13:07:01;;;;;;;5.63;3.92;;;;;;;;;;5070549;28;20408;-86
2024/01/31 13:09:27;;;;;;;6.05;3.92;;;;;;;;;;5071501;28;20051;-85
2024/01/31 13:11:55;;;;;;;7.03;3.97;;;;;;;;;;5072101;28;20047;-86
2024/01/31 13:14:21;;;;;;;8.00;4.22;;;;;;;;;;5072744;28;20103;-83
2024/01/31 13:16:47;;;;;;;6.10;3.58;;;;;;;;;;5072645;28;20020;-83
2024/01/31 13:19:13;;;;;;;8.32;3.58;;;;;;;;;;5071896;28;20044;-87
2024/01/31 13:21:40;;;;;;;4.75;3.65;;;;;;;;;;5071772;28;20111;-85
2024/01/31 13:24:06;;;;;;;6.15;3.63;;;;;;;;;;5070409;28;20035;-87
2024/01/31 13:26:35;;;;;;;9.63;3.20;;;;;;;;;;5086986;28;20045;-85
2024/01/31 13:29:01;;;;;;;4.82;3.33;;;;;;;;;;5091831;28;20440;-84
2024/01/31 13:31:27;;;;;;;6.15;3.13;;;;;;;;;;5092107;28;20054;-84
2024/01/31 13:33:53;;;;;;;3.45;2.58;;;;;;;;;;5092470;28;20036;-83
2024/01/31 13:36:20;;;;;;;4.47;2.65;;;;;;;;;;5092313;28;20107;-84
2024/01/31 13:38:46;;;;;;;3.38;2.33;;;;;;;;;;5077911;28;20482;-84
2024/01/31 13:41:12;;;;;;;4.78;3.15;;;;;;;;;;5071005;28;20036;-84
2024/01/31 13:43:39;;;;;;;4.15;2.78;;;;;;;;;;5071266;28;20017;-84
2024/01/31 13:46:06;;;;;;;5.50;3.58;;;;;;;;;;5070327;28;20561;-84
2024/01/31 13:48:32;;;;;;;4.72;2.90;;;;;;;;;;5071047;28;20032;-86
2024/01/31 13:50:58;;;;;;;5.30;3.10;;;;;;;;;;5071016;28;20055;-87
2024/01/31 13:53:24;;;;;;;4.82;2.95;;;;;;;;;;5071129;28;20032;-84
2024/01/31 13:55:50;;;;;;;5.32;2.90;;;;;;;;;;5071848;28;20545;-86
2024/01/31 13:58:16;;;;;;;3.38;2.25;;;;;;;;;;5070845;28;20033;-85
2024/01/31 14:00:42;;;;;;;4.07;2.47;;;;;;;;;;5070881;28;20490;-87
2024/01/31 14:03:08;;;;;;;3.35;2.17;;;;;;;;;;5070884;28;20024;-87
2024/01/31 14:05:34;;;;;;;5.38;2.63;;;;;;;;;;5069410;28;20024;-88
2024/01/31 14:08:00;;;;;;;6.07;2.72;;;;;;;;;;5070657;28;20033;-88
2024/01/31 14:10:26;;;;;;;4.85;2.80;;;;;;;;;;5070739;28;20056;-85
2024/01/31 14:12:52;;;;;;;9.05;3.13;;;;;;;;;;5071552;28;20079;-88
2024/01/31 14:15:18;;;;;;;5.07;3.03;;;;;;;;;;5070614;28;20036;-86
2024/01/31 14:17:44;;;;;;;2.83;2.50;;;;;;;;;;5070609;28;20511;-87
2024/01/31 14:20:10;;;;;;;4.13;3.05;;;;;;;;;;5070455;28;20048;-86
2024/01/31 14:22:36;;;;;;;4.90;2.72;;;;;;;;;;5070392;28;20024;-86
2024/01/31 14:25:05;;;;;;;3.65;2.20;;;;;;;;;;5070313;28;20028;-87
2024/01/31 14:27:31;;;;;;;6.82;2.50;;;;;;;;;;5070419;28;20039;-86
2024/01/31 14:29:57;;;;;;;5.00;2.30;;;;;;;;;;5070206;28;20036;-85
2024/01/31 14:32:23;;;;;;;3.22;2.22;;;;;;;;;;5070820;28;20107;-84
2024/01/31 14:34:49;;;;;;;10.68;2.58;;;;;;;;;;5070148;28;20033;-85